createdAt,value
2023-03-12T00:03:36.106Z,55.10
2023-03-12T00:08:38.324Z,55.11
2023-03-12T00:13:40.775Z,54.94
2023-03-12T00:18:43.740Z,54.91
2023-03-12T00:23:48.012Z,54.68
2023-03-12T00:28:50.223Z,55.10
2023-03-12T00:33:52.151Z,54.88
2023-03-12T00:38:55.646Z,54.80
2023-03-12T00:43:57.849Z,54.98
2023-03-12T00:48:59.822Z,54.96
2023-03-12T00:54:01.751Z,54.82
2023-03-12T00:59:04.150Z,54.81
2023-03-12T01:04:06.131Z,54.72
2023-03-12T01:09:09.278Z,54.92
2023-03-12T01:14:11.237Z,54.81
2023-03-12T01:19:13.083Z,54.93
2023-03-12T01:24:15.015Z,54.57
2023-03-12T01:29:16.965Z,54.79
2023-03-12T01:34:18.934Z,54.74
2023-03-12T01:39:20.809Z,54.87
2023-03-12T01:44:22.694Z,54.76
2023-03-12T01:49:30.107Z,54.87
2023-03-12T01:54:52.411Z,54.77
2023-03-12T01:59:59.120Z,54.54
2023-03-12T02:05:13.601Z,54.26
2023-03-12T02:10:16.886Z,54.31
2023-03-12T02:15:19.496Z,54.29
2023-03-12T02:20:36.930Z,54.46
2023-03-12T02:25:42.258Z,54.28
2023-03-12T02:30:50.130Z,54.39
2023-03-12T02:35:53.187Z,54.04
2023-03-12T02:40:56.593Z,54.13
2023-03-12T02:45:58.832Z,53.95
2023-03-12T02:51:00.871Z,53.80
2023-03-12T02:56:02.897Z,53.77
2023-03-12T03:01:05.235Z,54.06
2023-03-12T03:06:07.509Z,53.55
2023-03-12T03:11:10.129Z,53.77
2023-03-12T03:16:13.607Z,53.67
2023-03-12T03:21:16.843Z,53.72
2023-03-12T03:26:22.541Z,53.71
2023-03-12T03:31:24.386Z,53.37
2023-03-12T03:36:26.714Z,53.49
2023-03-12T03:41:35.796Z,53.41
2023-03-12T03:46:38.100Z,53.09
2023-03-12T03:51:43.446Z,53.44
2023-03-12T03:56:48.704Z,53.35
2023-03-12T04:01:50.962Z,53.36
2023-03-12T04:06:52.919Z,53.07
2023-03-12T04:11:54.883Z,53.14
2023-03-12T04:16:57.067Z,53.00
2023-03-12T04:21:59.530Z,52.98
2023-03-12T04:27:01.623Z,53.08
2023-03-12T04:32:03.698Z,53.07
2023-03-12T04:37:05.784Z,52.82
2023-03-12T04:42:08.557Z,52.75
2023-03-12T04:47:10.821Z,52.60
2023-03-12T04:52:12.830Z,52.92
2023-03-12T04:57:15.339Z,53.03
2023-03-12T05:02:17.301Z,52.99
2023-03-12T05:07:19.984Z,52.94
2023-03-12T05:12:21.926Z,52.85
2023-03-12T05:17:23.934Z,52.88
2023-03-12T05:22:25.886Z,52.86
2023-03-12T05:27:30.901Z,53.09
2023-03-12T05:32:34.338Z,52.81
2023-03-12T05:37:36.432Z,52.93
2023-03-12T05:42:39.588Z,52.81
2023-03-12T05:47:43.566Z,52.82
2023-03-12T05:52:45.651Z,52.96
2023-03-12T05:57:47.776Z,52.84
2023-03-12T06:02:49.661Z,53.02
2023-03-12T06:07:51.890Z,52.88
2023-03-12T06:12:54.301Z,52.99
2023-03-12T06:17:56.402Z,52.81
2023-03-12T06:22:58.490Z,52.80
2023-03-12T06:28:00.921Z,52.98
2023-03-12T06:33:04.802Z,52.14
2023-03-12T06:38:06.728Z,51.83
2023-03-12T06:43:12.318Z,52.04
2023-03-12T06:48:14.256Z,51.50
2023-03-12T06:53:16.294Z,51.35
2023-03-12T06:58:19.160Z,50.71
2023-03-12T07:03:21.735Z,50.68
2023-03-12T07:08:24.793Z,49.95
2023-03-12T07:13:26.630Z,49.61
2023-03-12T07:18:28.481Z,49.36
2023-03-12T07:23:30.334Z,49.09
2023-03-12T07:28:32.233Z,48.89
2023-03-12T07:33:34.343Z,48.75
2023-03-12T07:38:37.282Z,49.14
2023-03-12T07:43:39.125Z,48.46
2023-03-12T07:48:44.125Z,47.60
2023-03-12T07:53:46.136Z,47.29
2023-03-12T07:58:48.280Z,46.22
2023-03-12T08:03:50.240Z,46.08
2023-03-12T08:08:52.414Z,45.86
2023-03-12T08:13:54.195Z,46.51
2023-03-12T08:18:56.086Z,45.17
2023-03-12T08:23:57.901Z,45.43
2023-03-12T08:29:03.199Z,45.22
2023-03-12T08:34:05.168Z,43.86
2023-03-12T08:39:07.069Z,44.60
2023-03-12T08:44:09.482Z,44.19
2023-03-12T08:49:11.432Z,44.34
2023-03-12T08:54:13.406Z,44.18
2023-03-12T08:59:15.242Z,44.09
2023-03-12T09:04:17.665Z,43.43
2023-03-12T09:09:19.817Z,43.23
2023-03-12T09:15:01.061Z,43.12
2023-03-12T09:19:43.561Z,43.15
2023-03-12T09:24:45.476Z,42.94
2023-03-12T09:29:59.423Z,41.76
2023-03-12T09:35:02.442Z,40.86
2023-03-12T09:40:08.264Z,40.40
2023-03-12T09:45:20.561Z,40.68
2023-03-12T09:50:34.601Z,40.72
2023-03-12T09:55:39.966Z,39.83
2023-03-12T10:00:41.804Z,39.66
2023-03-12T10:05:52.763Z,39.91
2023-03-12T10:11:25.878Z,39.26
2023-03-12T10:16:47.881Z,39.15
2023-03-12T10:22:03.518Z,38.15
2023-03-12T10:27:14.647Z,38.32
2023-03-12T10:32:37.797Z,38.15
2023-03-12T10:37:44.905Z,38.74
2023-03-12T10:42:46.903Z,39.17
2023-03-12T10:48:00.715Z,38.25
2023-03-12T10:53:30.045Z,38.39
2023-03-12T10:58:39.286Z,38.94
2023-03-12T11:03:46.343Z,38.94
2023-03-12T11:09:16.748Z,39.19
2023-03-12T11:14:20.891Z,40.22
2023-03-12T11:19:34.405Z,39.44
2023-03-12T11:24:36.243Z,39.76
2023-03-12T11:29:43.538Z,39.83
2023-03-12T11:34:49.852Z,40.20
2023-03-12T11:40:13.140Z,40.15
2023-03-12T11:45:33.864Z,40.01
2023-03-12T11:50:35.679Z,37.89
2023-03-12T11:55:37.437Z,35.00
2023-03-12T12:00:54.107Z,34.23
2023-03-12T12:06:14.749Z,35.33
2023-03-12T12:11:55.474Z,36.06
2023-03-12T12:17:21.556Z,36.45
2023-03-12T12:22:49.971Z,37.29
2023-03-12T12:28:29.405Z,36.86
2023-03-12T12:34:22.206Z,37.18
2023-03-12T12:39:35.351Z,37.12
2023-03-12T12:45:04.348Z,37.15
2023-03-12T12:50:12.382Z,37.27
2023-03-12T12:55:23.185Z,37.64
2023-03-12T13:00:49.106Z,38.48
2023-03-12T13:05:58.517Z,38.02
2023-03-12T13:11:17.183Z,39.11
2023-03-12T13:16:30.953Z,38.32
2023-03-12T13:21:40.927Z,38.10
2023-03-12T13:27:04.903Z,38.05
2023-03-12T13:32:30.324Z,37.44
2023-03-12T13:38:02.562Z,36.84
2023-03-12T13:43:35.971Z,37.54
2023-03-12T13:48:45.788Z,37.70
2023-03-12T13:53:53.223Z,37.78
2023-03-12T13:59:06.737Z,37.57
2023-03-12T14:04:18.992Z,38.82
2023-03-12T14:09:40.600Z,38.80
2023-03-12T14:15:20.673Z,40.29
2023-03-12T14:20:23.357Z,41.30
2023-03-12T14:25:44.907Z,41.94
2023-03-12T14:31:05.513Z,44.78
2023-03-12T14:36:17.239Z,47.32
2023-03-12T14:41:31.420Z,48.84
2023-03-12T14:46:33.731Z,51.42
2023-03-12T14:51:37.101Z,53.16
2023-03-12T14:56:44.576Z,54.11
2023-03-12T15:01:48.114Z,53.51
2023-03-12T15:06:54.658Z,53.78
2023-03-12T15:12:02.726Z,53.78
2023-03-12T15:17:06.618Z,54.29
2023-03-12T15:22:17.270Z,54.02
2023-03-12T15:27:25.580Z,54.13
2023-03-12T15:32:30.782Z,54.08
2023-03-12T15:37:41.419Z,54.08
2023-03-12T15:42:46.783Z,53.65
2023-03-12T15:47:51.211Z,53.67
2023-03-12T15:53:06.300Z,53.83
2023-03-12T15:58:31.938Z,53.50
2023-03-12T16:03:34.354Z,53.61
2023-03-12T16:08:56.661Z,53.18
2023-03-12T16:14:07.130Z,53.20
2023-03-12T16:19:16.696Z,52.94
2023-03-12T16:24:19.131Z,52.91
2023-03-12T16:29:22.331Z,53.58
2023-03-12T16:34:24.721Z,54.48
2023-03-12T16:39:30.387Z,55.11
2023-03-12T16:44:35.379Z,54.92
2023-03-12T16:49:37.309Z,55.71
2023-03-12T16:54:39.259Z,56.24
2023-03-12T16:59:41.854Z,56.71
2023-03-12T17:04:44.489Z,56.53
2023-03-12T17:09:46.769Z,56.94
2023-03-12T17:14:49.024Z,57.45
2023-03-12T17:19:52.163Z,58.12
2023-03-12T17:24:55.638Z,58.94
2023-03-12T17:29:57.807Z,58.95
2023-03-12T17:35:03.255Z,59.67
2023-03-12T17:40:10.010Z,59.80
2023-03-12T17:45:12.098Z,59.71
2023-03-12T17:50:14.857Z,60.23
2023-03-12T17:55:16.950Z,60.49
2023-03-12T18:00:21.696Z,60.33
2023-03-12T18:05:23.673Z,60.43
2023-03-12T18:10:25.535Z,60.47
2023-03-12T18:15:27.604Z,60.80
2023-03-12T18:20:38.651Z,60.54
2023-03-12T18:25:41.274Z,60.61
2023-03-12T18:30:47.200Z,60.70
2023-03-12T18:35:49.096Z,60.93
2023-03-12T18:40:51.429Z,60.75
2023-03-12T18:45:53.288Z,60.95
2023-03-12T18:50:55.139Z,60.84
2023-03-12T18:55:58.551Z,60.46
2023-03-12T19:01:01.892Z,60.55
2023-03-12T19:06:06.523Z,60.74
2023-03-12T19:11:11.091Z,60.91
2023-03-12T19:16:16.220Z,60.78
2023-03-12T19:21:18.772Z,59.53
2023-03-12T19:26:20.635Z,60.89
2023-03-12T19:31:22.752Z,59.72
2023-03-12T19:36:24.717Z,61.31
2023-03-12T19:41:26.653Z,60.98
2023-03-12T19:46:28.696Z,61.25
2023-03-12T19:51:30.503Z,61.06
2023-03-12T19:56:32.301Z,61.03
2023-03-12T20:01:34.194Z,61.15
2023-03-12T20:06:36.004Z,61.69
2023-03-12T20:11:38.000Z,61.71
2023-03-12T20:16:39.943Z,61.27
2023-03-12T20:21:44.093Z,61.44
2023-03-12T20:26:46.650Z,61.08
2023-03-12T20:31:48.652Z,61.00
2023-03-12T20:36:50.660Z,60.84
2023-03-12T20:41:52.531Z,61.48
2023-03-12T20:46:54.390Z,61.34
2023-03-12T20:51:56.228Z,60.59
2023-03-12T20:56:58.857Z,59.25
2023-03-12T21:02:00.828Z,59.83
2023-03-12T21:07:02.687Z,60.86
2023-03-12T21:12:04.930Z,60.65
2023-03-12T21:17:08.460Z,60.00
2023-03-12T21:22:10.352Z,59.30
2023-03-12T21:27:13.125Z,58.86
2023-03-12T21:32:15.510Z,60.20
2023-03-12T21:37:17.691Z,60.19
2023-03-12T21:42:24.461Z,60.14
2023-03-12T21:47:26.479Z,60.69
2023-03-12T21:52:28.966Z,60.26
2023-03-12T21:57:30.798Z,60.48
2023-03-12T22:02:32.679Z,60.82
2023-03-12T22:07:34.495Z,60.99
2023-03-12T22:12:36.295Z,60.63
2023-03-12T22:17:38.251Z,60.68
2023-03-12T22:22:40.105Z,59.94
2023-03-12T22:27:42.353Z,59.98
2023-03-12T22:32:44.208Z,59.40
2023-03-12T22:37:46.151Z,59.90
2023-03-12T22:42:52.715Z,58.77
2023-03-12T22:47:54.622Z,58.83
2023-03-12T22:52:56.681Z,58.79
2023-03-12T22:57:58.610Z,58.31
2023-03-12T23:03:00.556Z,60.11
2023-03-12T23:08:02.645Z,58.85
2023-03-12T23:13:04.606Z,58.53
2023-03-12T23:18:06.581Z,59.62
2023-03-12T23:23:08.722Z,58.54
2023-03-12T23:28:10.670Z,59.48
2023-03-12T23:33:12.636Z,58.29
2023-03-12T23:38:14.624Z,59.53
2023-03-12T23:43:16.864Z,58.36
2023-03-12T23:48:18.745Z,58.67
2023-03-12T23:53:21.279Z,58.45
2023-03-12T23:58:24.412Z,58.49
